Time;durP1;ratioP1;P1;durP2;ratioP2;P2;SDS_P1;SDS_P2;PMS_P1;PMS_P2;Temp;Humidity;BMP_temperature;BMP_pressure;BME280_temperature;BME280_humidity;BME280_pressure;Samples;Min_cycle;Max_cycle;Signal;HPM_P1;HPM_P2
2023/12/16 00:00:01;;;;;;;9.47;5.63;;;;;;;;;;468672;28;1171;-72
2023/12/16 00:00:16;;;;;;;10.20;5.70;;;;;;;;;;470037;28;1026;-71
2023/12/16 00:00:32;;;;;;;10.80;5.60;;;;;;;;;;469963;28;1480;-72
2023/12/16 00:00:47;;;;;;;9.67;5.30;;;;;;;;;;471431;28;949;-72
2023/12/16 00:01:03;;;;;;;10.52;5.35;;;;;;;;;;468794;28;1156;-71
2023/12/16 00:01:18;;;;;;;10.73;5.40;;;;;;;;;;467837;28;1153;-72
2023/12/16 00:01:33;;;;;;;9.65;5.18;;;;;;;;;;469436;28;1153;-72
2023/12/16 00:01:49;;;;;;;12.93;5.60;;;;;;;;;;468190;28;1056;-72
2023/12/16 00:02:04;;;;;;;10.88;5.40;;;;;;;;;;469130;28;1089;-72
2023/12/16 00:02:20;;;;;;;7.07;4.60;;;;;;;;;;471609;28;1049;-72
2023/12/16 00:02:35;;;;;;;9.40;4.77;;;;;;;;;;468803;28;1225;-71
2023/12/16 00:02:50;;;;;;;10.38;4.80;;;;;;;;;;469227;28;1044;-71
2023/12/16 00:03:06;;;;;;;9.53;4.83;;;;;;;;;;469612;28;1548;-72
2023/12/16 00:03:21;;;;;;;10.30;4.95;;;;;;;;;;470151;28;1055;-72
2023/12/16 00:03:37;;;;;;;9.03;4.53;;;;;;;;;;471140;28;925;-71
2023/12/16 00:03:52;;;;;;;7.60;4.43;;;;;;;;;;469729;28;1062;-72
2023/12/16 00:04:07;;;;;;;8.05;4.70;;;;;;;;;;469131;28;1255;-72
2023/12/16 00:04:23;;;;;;;8.33;4.63;;;;;;;;;;469318;28;898;-72
2023/12/16 00:04:40;;;;;;;9.93;4.67;;;;;;;;;;469235;28;1001;-72
2023/12/16 00:04:55;;;;;;;10.60;4.78;;;;;;;;;;467409;28;1330;-71
2023/12/16 00:05:11;;;;;;;9.97;4.80;;;;;;;;;;468915;28;1078;-72
2023/12/16 00:05:26;;;;;;;9.80;4.77;;;;;;;;;;467126;28;1499;-72
2023/12/16 00:05:41;;;;;;;8.73;4.50;;;;;;;;;;467415;28;1140;-72
2023/12/16 00:05:57;;;;;;;8.00;4.23;;;;;;;;;;470151;28;910;-72
2023/12/16 00:06:12;;;;;;;7.60;4.00;;;;;;;;;;469219;28;1054;-72
2023/12/16 00:06:27;;;;;;;7.97;4.13;;;;;;;;;;469618;28;934;-72
2023/12/16 00:06:43;;;;;;;8.20;4.47;;;;;;;;;;469743;28;1146;-72
2023/12/16 00:06:58;;;;;;;8.32;4.30;;;;;;;;;;471186;28;996;-71
2023/12/16 00:07:13;;;;;;;9.13;4.40;;;;;;;;;;471736;28;1120;-71
2023/12/16 00:07:29;;;;;;;10.47;4.73;;;;;;;;;;470717;28;1033;-72
2023/12/16 00:07:44;;;;;;;9.90;4.75;;;;;;;;;;469499;28;1018;-71
2023/12/16 00:07:59;;;;;;;7.33;4.27;;;;;;;;;;469203;28;914;-71
2023/12/16 00:08:15;;;;;;;6.93;4.13;;;;;;;;;;470735;28;1477;-71
2023/12/16 00:08:30;;;;;;;8.40;4.22;;;;;;;;;;470637;28;1179;-71
2023/12/16 00:08:46;;;;;;;8.97;4.30;;;;;;;;;;470978;28;1009;-72
2023/12/16 00:09:02;;;;;;;8.52;4.20;;;;;;;;;;471200;28;1126;-71
2023/12/16 00:09:18;;;;;;;7.55;4.05;;;;;;;;;;469779;28;1361;-72
2023/12/16 00:09:33;;;;;;;7.63;4.10;;;;;;;;;;471192;28;923;-72
2023/12/16 00:09:48;;;;;;;8.90;4.40;;;;;;;;;;473206;28;1004;-72
2023/12/16 00:10:06;;;;;;;10.17;4.47;;;;;;;;;;473844;28;1094;-72
2023/12/16 00:10:21;;;;;;;9.23;4.05;;;;;;;;;;473894;28;926;-72
2023/12/16 00:10:37;;;;;;;8.13;4.00;;;;;;;;;;472609;28;1322;-72
2023/12/16 00:10:52;;;;;;;10.18;4.20;;;;;;;;;;473219;28;2016;-72
2023/12/16 00:11:07;;;;;;;10.07;4.33;;;;;;;;;;474725;27;1239;-72
2023/12/16 00:11:22;;;;;;;9.33;4.17;;;;;;;;;;475543;27;1139;-72
2023/12/16 00:11:38;;;;;;;8.60;3.90;;;;;;;;;;475772;27;1130;-72
2023/12/16 00:11:54;;;;;;;7.13;4.20;;;;;;;;;;472705;28;1146;-72
2023/12/16 00:12:09;;;;;;;7.78;4.65;;;;;;;;;;471956;28;1262;-71
2023/12/16 00:12:25;;;;;;;8.80;4.70;;;;;;;;;;470989;28;1066;-72
2023/12/16 00:12:40;;;;;;;8.13;4.40;;;;;;;;;;472595;28;878;-72
2023/12/16 00:12:55;;;;;;;8.30;4.33;;;;;;;;;;471549;28;1198;-72
2023/12/16 00:13:11;;;;;;;9.27;4.50;;;;;;;;;;469737;28;1392;-71
2023/12/16 00:13:26;;;;;;;9.70;4.50;;;;;;;;;;467670;28;1074;-72
2023/12/16 00:13:41;;;;;;;7.70;4.00;;;;;;;;;;469899;28;1203;-72
2023/12/16 00:13:57;;;;;;;7.73;4.10;;;;;;;;;;470604;28;1314;-71
2023/12/16 00:14:12;;;;;;;10.35;4.50;;;;;;;;;;471574;28;1080;-72
2023/12/16 00:14:28;;;;;;;9.60;4.20;;;;;;;;;;470226;28;1263;-72
2023/12/16 00:14:43;;;;;;;8.77;4.15;;;;;;;;;;470057;28;940;-72
2023/12/16 00:14:59;;;;;;;9.93;4.53;;;;;;;;;;470464;28;1119;-72
2023/12/16 00:15:14;;;;;;;9.33;4.57;;;;;;;;;;470643;28;945;-71
2023/12/16 00:15:29;;;;;;;7.87;4.10;;;;;;;;;;470393;28;906;-72
2023/12/16 00:15:45;;;;;;;7.90;4.15;;;;;;;;;;470881;28;1591;-72
2023/12/16 00:16:01;;;;;;;8.37;4.30;;;;;;;;;;471668;28;1067;-72
2023/12/16 00:16:16;;;;;;;7.63;4.10;;;;;;;;;;472929;28;1081;-71
2023/12/16 00:16:31;;;;;;;8.43;4.27;;;;;;;;;;471288;28;1337;-72
2023/12/16 00:16:47;;;;;;;9.77;4.47;;;;;;;;;;471967;28;1677;-71
2023/12/16 00:17:02;;;;;;;9.47;4.47;;;;;;;;;;473724;28;902;-72
2023/12/16 00:17:18;;;;;;;10.10;4.30;;;;;;;;;;473434;28;1388;-72
2023/12/16 00:17:33;;;;;;;9.90;4.17;;;;;;;;;;471629;28;1336;-72
2023/12/16 00:17:48;;;;;;;8.10;4.10;;;;;;;;;;470878;28;1339;-72
2023/12/16 00:18:04;;;;;;;7.72;4.07;;;;;;;;;;469786;28;1339;-72
2023/12/16 00:18:19;;;;;;;8.47;4.03;;;;;;;;;;470646;28;1558;-71
2023/12/16 00:18:36;;;;;;;8.73;4.03;;;;;;;;;;471041;28;1658;-72
2023/12/16 00:18:52;;;;;;;9.63;4.20;;;;;;;;;;471812;28;1405;-71
2023/12/16 00:19:07;;;;;;;8.85;4.38;;;;;;;;;;469798;28;1300;-72
2023/12/16 00:19:22;;;;;;;9.13;4.50;;;;;;;;;;470020;28;1060;-72
2023/12/16 00:19:38;;;;;;;8.33;4.07;;;;;;;;;;471928;28;1341;-72
2023/12/16 00:19:53;;;;;;;7.70;3.93;;;;;;;;;;470080;28;1077;-72
2023/12/16 00:20:09;;;;;;;8.43;4.07;;;;;;;;;;471106;28;1350;-72
2023/12/16 00:20:24;;;;;;;7.40;4.10;;;;;;;;;;469738;28;1602;-72
2023/12/16 00:20:39;;;;;;;8.65;4.40;;;;;;;;;;469675;28;1369;-71
2023/12/16 00:20:55;;;;;;;10.20;4.57;;;;;;;;;;470147;28;1039;-72
2023/12/16 00:21:10;;;;;;;8.73;4.30;;;;;;;;;;469112;28;1335;-72
2023/12/16 00:21:25;;;;;;;8.10;4.20;;;;;;;;;;470124;28;1583;-72
2023/12/16 00:21:41;;;;;;;9.23;4.30;;;;;;;;;;469262;28;2098;-72
2023/12/16 00:21:56;;;;;;;9.33;4.30;;;;;;;;;;472499;28;1342;-72
2023/12/16 00:22:12;;;;;;;8.55;4.43;;;;;;;;;;470148;28;1399;-71
2023/12/16 00:22:27;;;;;;;8.43;4.30;;;;;;;;;;470930;28;1368;-71
2023/12/16 00:22:43;;;;;;;9.70;4.20;;;;;;;;;;471899;28;922;-72
2023/12/16 00:22:58;;;;;;;9.93;4.23;;;;;;;;;;473216;28;1411;-71
2023/12/16 00:23:13;;;;;;;8.68;4.30;;;;;;;;;;470941;28;1292;-72
2023/12/16 00:23:29;;;;;;;8.80;4.23;;;;;;;;;;471966;28;1511;-72
2023/12/16 00:23:45;;;;;;;8.82;4.00;;;;;;;;;;471750;28;1343;-71
2023/12/16 00:24:00;;;;;;;9.00;4.10;;;;;;;;;;471872;28;1442;-71
2023/12/16 00:24:15;;;;;;;8.10;4.10;;;;;;;;;;469965;28;1372;-72
2023/12/16 00:24:31;;;;;;;8.70;4.53;;;;;;;;;;470464;28;1645;-72
2023/12/16 00:24:46;;;;;;;9.30;4.47;;;;;;;;;;469857;28;1562;-72
2023/12/16 00:25:01;;;;;;;7.88;4.10;;;;;;;;;;469603;28;1344;-71
2023/12/16 00:25:17;;;;;;;8.50;4.13;;;;;;;;;;469367;28;1393;-72
2023/12/16 00:25:32;;;;;;;9.35;4.30;;;;;;;;;;470502;28;1380;-72
2023/12/16 00:25:48;;;;;;;8.53;4.20;;;;;;;;;;467794;28;1364;-71
2023/12/16 00:26:03;;;;;;;7.70;4.10;;;;;;;;;;467314;28;912;-71
2023/12/16 00:26:18;;;;;;;8.23;4.10;;;;;;;;;;469171;28;1403;-72
2023/12/16 00:26:34;;;;;;;8.83;4.23;;;;;;;;;;470334;28;1178;-72
2023/12/16 00:26:49;;;;;;;8.75;4.28;;;;;;;;;;468978;28;1297;-71
2023/12/16 00:27:05;;;;;;;6.97;3.97;;;;;;;;;;469296;28;1408;-72
2023/12/16 00:27:20;;;;;;;6.70;4.17;;;;;;;;;;470899;28;1408;-72
2023/12/16 00:27:36;;;;;;;8.43;4.40;;;;;;;;;;470654;28;1242;-72
2023/12/16 00:27:51;;;;;;;8.02;4.18;;;;;;;;;;469741;28;1531;-72
2023/12/16 00:28:07;;;;;;;7.70;4.23;;;;;;;;;;469462;28;1251;-72
2023/12/16 00:28:22;;;;;;;8.27;4.23;;;;;;;;;;469430;28;1336;-72
2023/12/16 00:28:37;;;;;;;9.20;4.13;;;;;;;;;;469788;28;1080;-71
2023/12/16 00:28:52;;;;;;;10.80;4.30;;;;;;;;;;469055;28;1398;-72
2023/12/16 00:29:08;;;;;;;8.93;4.13;;;;;;;;;;469506;28;1592;-72
2023/12/16 00:29:23;;;;;;;7.55;3.95;;;;;;;;;;469159;28;1341;-72
2023/12/16 00:29:38;;;;;;;9.13;4.13;;;;;;;;;;468266;28;1389;-72
2023/12/16 00:29:54;;;;;;;9.37;4.10;;;;;;;;;;467289;28;1391;-72
2023/12/16 00:30:09;;;;;;;8.02;3.88;;;;;;;;;;469060;28;1653;-72
2023/12/16 00:30:25;;;;;;;6.60;3.80;;;;;;;;;;467891;28;1066;-72
2023/12/16 00:30:40;;;;;;;7.78;4.10;;;;;;;;;;466695;28;1356;-72
2023/12/16 00:30:57;;;;;;;9.67;4.30;;;;;;;;;;465517;28;1958;-72
2023/12/16 00:31:12;;;;;;;9.65;4.22;;;;;;;;;;465958;28;1682;-72
2023/12/16 00:31:28;;;;;;;9.70;4.07;;;;;;;;;;465573;28;1144;-72
2023/12/16 00:31:43;;;;;;;8.07;3.80;;;;;;;;;;466651;28;1759;-72
2023/12/16 00:31:59;;;;;;;7.40;3.77;;;;;;;;;;467345;28;1205;-72
2023/12/16 00:32:14;;;;;;;8.07;3.90;;;;;;;;;;467461;28;1349;-71
2023/12/16 00:32:29;;;;;;;7.77;3.97;;;;;;;;;;469443;28;1029;-72
2023/12/16 00:32:45;;;;;;;8.37;4.20;;;;;;;;;;467645;28;999;-72
2023/12/16 00:33:00;;;;;;;7.53;4.10;;;;;;;;;;470143;28;1325;-71
2023/12/16 00:33:15;;;;;;;8.30;4.17;;;;;;;;;;472180;28;1027;-71
2023/12/16 00:33:31;;;;;;;8.23;4.10;;;;;;;;;;471216;28;1380;-72
2023/12/16 00:33:46;;;;;;;6.72;3.85;;;;;;;;;;470391;28;1112;-71
2023/12/16 00:34:01;;;;;;;7.30;3.87;;;;;;;;;;469673;28;1483;-71
2023/12/16 00:34:17;;;;;;;7.78;3.80;;;;;;;;;;469944;28;1247;-71
2023/12/16 00:34:33;;;;;;;8.60;4.03;;;;;;;;;;470673;28;1553;-72
2023/12/16 00:34:48;;;;;;;9.32;4.47;;;;;;;;;;469618;28;1297;-72
2023/12/16 00:35:04;;;;;;;9.23;4.63;;;;;;;;;;469500;28;1398;-72
2023/12/16 00:35:19;;;;;;;9.23;4.32;;;;;;;;;;470840;28;1356;-72
2023/12/16 00:35:34;;;;;;;8.23;4.17;;;;;;;;;;471091;28;1348;-71
2023/12/16 00:35:50;;;;;;;9.90;4.57;;;;;;;;;;471329;28;1380;-71
2023/12/16 00:36:06;;;;;;;10.17;4.57;;;;;;;;;;471647;28;1594;-71
2023/12/16 00:36:21;;;;;;;8.48;4.40;;;;;;;;;;473206;28;1449;-72
2023/12/16 00:36:36;;;;;;;7.80;4.07;;;;;;;;;;469991;28;1493;-72
2023/12/16 00:36:52;;;;;;;6.30;3.73;;;;;;;;;;471000;28;1400;-71
2023/12/16 00:37:08;;;;;;;6.47;3.70;;;;;;;;;;471492;28;1252;-72
2023/12/16 00:37:23;;;;;;;9.02;4.10;;;;;;;;;;471857;28;1342;-72
2023/12/16 00:37:38;;;;;;;9.73;4.40;;;;;;;;;;472352;28;1586;-72
2023/12/16 00:37:54;;;;;;;7.18;3.97;;;;;;;;;;471656;28;1408;-71
2023/12/16 00:38:09;;;;;;;7.00;3.90;;;;;;;;;;472253;28;1047;-71
2023/12/16 00:38:25;;;;;;;7.53;3.97;;;;;;;;;;471662;28;1293;-72
2023/12/16 00:38:40;;;;;;;8.23;4.05;;;;;;;;;;471586;28;1347;-72
2023/12/16 00:38:55;;;;;;;7.93;3.80;;;;;;;;;;471818;28;956;-72
2023/12/16 00:39:11;;;;;;;8.02;3.88;;;;;;;;;;471120;28;1396;-71
2023/12/16 00:39:26;;;;;;;9.30;4.20;;;;;;;;;;471835;28;1387;-72
2023/12/16 00:39:41;;;;;;;9.40;4.23;;;;;;;;;;472631;28;1379;-72
2023/12/16 00:39:57;;;;;;;8.70;4.30;;;;;;;;;;473295;28;1119;-71
2023/12/16 00:40:12;;;;;;;9.53;4.23;;;;;;;;;;472464;28;1351;-72
2023/12/16 00:40:28;;;;;;;9.60;4.20;;;;;;;;;;474413;28;928;-72
2023/12/16 00:40:43;;;;;;;7.57;3.90;;;;;;;;;;473464;28;1529;-71
2023/12/16 00:40:58;;;;;;;8.03;3.80;;;;;;;;;;471486;28;1349;-72
2023/12/16 00:41:14;;;;;;;9.63;3.92;;;;;;;;;;470211;28;1323;-72
2023/12/16 00:41:29;;;;;;;8.70;4.13;;;;;;;;;;467927;28;1049;-72
2023/12/16 00:41:44;;;;;;;8.20;4.03;;;;;;;;;;467526;28;1328;-72
2023/12/16 00:42:00;;;;;;;8.48;4.05;;;;;;;;;;468930;28;1057;-72
2023/12/16 00:42:15;;;;;;;9.57;4.43;;;;;;;;;;467630;28;1317;-72
2023/12/16 00:42:30;;;;;;;10.40;4.70;;;;;;;;;;470423;28;1175;-71
2023/12/16 00:42:46;;;;;;;9.13;4.67;;;;;;;;;;469755;28;945;-71
2023/12/16 00:43:02;;;;;;;9.13;4.80;;;;;;;;;;469752;28;1406;-71
2023/12/16 00:43:17;;;;;;;9.02;4.78;;;;;;;;;;470798;28;1334;-71
2023/12/16 00:43:33;;;;;;;8.57;4.50;;;;;;;;;;468679;28;1374;-72
2023/12/16 00:43:48;;;;;;;8.23;4.43;;;;;;;;;;471134;28;1385;-72
2023/12/16 00:44:04;;;;;;;10.93;4.60;;;;;;;;;;468750;28;1407;-71
2023/12/16 00:44:19;;;;;;;11.33;4.60;;;;;;;;;;470595;28;1442;-72
2023/12/16 00:44:34;;;;;;;8.90;4.20;;;;;;;;;;471488;28;1392;-71
2023/12/16 00:44:50;;;;;;;9.38;4.40;;;;;;;;;;470003;28;1376;-72
2023/12/16 00:45:06;;;;;;;9.20;4.53;;;;;;;;;;471118;28;1286;-71
2023/12/16 00:45:22;;;;;;;9.23;4.68;;;;;;;;;;472134;28;1671;-72
2023/12/16 00:45:37;;;;;;;9.83;4.60;;;;;;;;;;471254;28;1549;-71
2023/12/16 00:45:52;;;;;;;10.07;4.43;;;;;;;;;;471673;28;1331;-72
2023/12/16 00:46:08;;;;;;;9.20;4.37;;;;;;;;;;472145;28;1397;-71
2023/12/16 00:46:24;;;;;;;9.90;4.38;;;;;;;;;;469985;28;1366;-72
2023/12/16 00:46:39;;;;;;;10.73;4.60;;;;;;;;;;470208;28;1235;-72
2023/12/16 00:46:54;;;;;;;9.03;4.60;;;;;;;;;;470221;28;1630;-71
2023/12/16 00:47:09;;;;;;;7.60;4.30;;;;;;;;;;469388;28;1077;-71
2023/12/16 00:47:25;;;;;;;7.27;4.07;;;;;;;;;;468887;28;1079;-72
2023/12/16 00:47:41;;;;;;;7.75;4.10;;;;;;;;;;467299;28;1170;-71
2023/12/16 00:47:56;;;;;;;8.37;4.23;;;;;;;;;;467012;28;941;-71
2023/12/16 00:48:11;;;;;;;8.07;4.35;;;;;;;;;;468132;28;1066;-72
2023/12/16 00:48:27;;;;;;;9.03;4.60;;;;;;;;;;466220;28;1050;-72
2023/12/16 00:48:43;;;;;;;9.13;4.67;;;;;;;;;;465445;28;2301;-72
2023/12/16 00:48:58;;;;;;;8.65;4.72;;;;;;;;;;467276;28;1148;-72
2023/12/16 00:49:13;;;;;;;8.25;4.70;;;;;;;;;;466326;28;945;-71
2023/12/16 00:49:29;;;;;;;7.47;4.50;;;;;;;;;;466870;28;1004;-72
2023/12/16 00:49:44;;;;;;;7.90;4.40;;;;;;;;;;467832;28;1092;-72
2023/12/16 00:49:59;;;;;;;8.63;4.78;;;;;;;;;;469401;28;1148;-72
2023/12/16 00:50:15;;;;;;;10.73;5.13;;;;;;;;;;468516;28;1192;-72
2023/12/16 00:50:30;;;;;;;10.33;4.80;;;;;;;;;;469867;28;1074;-72
2023/12/16 00:50:45;;;;;;;9.52;4.70;;;;;;;;;;471332;28;1962;-71
2023/12/16 00:51:02;;;;;;;10.17;4.90;;;;;;;;;;469974;28;1064;-72
2023/12/16 00:51:20;;;;;;;9.57;4.97;;;;;;;;;;470597;28;941;-72
2023/12/16 00:51:35;;;;;;;8.10;4.65;;;;;;;;;;472163;28;1056;-72
2023/12/16 00:51:50;;;;;;;8.07;4.22;;;;;;;;;;470755;28;1126;-71
2023/12/16 00:52:06;;;;;;;9.30;4.53;;;;;;;;;;471140;28;1137;-72
2023/12/16 00:52:21;;;;;;;9.07;4.70;;;;;;;;;;471558;28;1076;-72
2023/12/16 00:52:36;;;;;;;8.90;4.53;;;;;;;;;;471119;28;1137;-72
2023/12/16 00:52:52;;;;;;;8.37;4.40;;;;;;;;;;469660;28;1253;-72
2023/12/16 00:53:09;;;;;;;7.90;4.57;;;;;;;;;;468709;28;1196;-71
2023/12/16 00:53:24;;;;;;;9.05;4.65;;;;;;;;;;471087;28;1070;-71
2023/12/16 00:53:39;;;;;;;8.43;4.40;;;;;;;;;;469422;28;1092;-71
2023/12/16 00:53:55;;;;;;;8.80;4.17;;;;;;;;;;469750;28;973;-71
2023/12/16 00:54:10;;;;;;;8.80;4.05;;;;;;;;;;469817;28;1027;-72
2023/12/16 00:54:26;;;;;;;7.13;4.13;;;;;;;;;;469384;28;1304;-72
2023/12/16 00:54:41;;;;;;;8.48;4.30;;;;;;;;;;470089;28;1309;-71
2023/12/16 00:54:57;;;;;;;9.23;4.53;;;;;;;;;;469382;28;1017;-71
2023/12/16 00:55:13;;;;;;;9.50;4.57;;;;;;;;;;469696;28;953;-72
2023/12/16 00:55:28;;;;;;;10.18;4.72;;;;;;;;;;469497;28;1166;-72
2023/12/16 00:55:44;;;;;;;9.80;4.80;;;;;;;;;;471659;28;940;-71
2023/12/16 00:55:59;;;;;;;10.25;4.85;;;;;;;;;;471246;28;881;-71
2023/12/16 00:56:14;;;;;;;9.60;5.03;;;;;;;;;;472472;28;939;-71
2023/12/16 00:56:30;;;;;;;8.83;4.90;;;;;;;;;;473719;28;885;-72
2023/12/16 00:56:47;;;;;;;9.00;4.85;;;;;;;;;;473151;28;1262;-72
2023/12/16 00:57:03;;;;;;;10.07;5.32;;;;;;;;;;474687;27;901;-71
2023/12/16 00:57:18;;;;;;;10.00;5.43;;;;;;;;;;472336;28;1321;-71
2023/12/16 00:57:33;;;;;;;8.50;5.10;;;;;;;;;;471079;28;1205;-72
2023/12/16 00:57:49;;;;;;;9.03;5.00;;;;;;;;;;470916;28;898;-71
2023/12/16 00:58:04;;;;;;;8.00;4.65;;;;;;;;;;471892;28;850;-72
2023/12/16 00:58:19;;;;;;;7.17;4.47;;;;;;;;;;471413;28;1044;-72
2023/12/16 00:58:34;;;;;;;7.00;4.50;;;;;;;;;;471553;28;1078;-71
2023/12/16 00:58:50;;;;;;;6.50;4.30;;;;;;;;;;469379;28;1606;-71
2023/12/16 00:59:05;;;;;;;6.43;4.30;;;;;;;;;;469953;28;1091;-71
2023/12/16 00:59:22;;;;;;;6.80;4.35;;;;;;;;;;470234;28;1460;-71
2023/12/16 00:59:38;;;;;;;7.22;4.40;;;;;;;;;;472100;28;1006;-71
2023/12/16 00:59:53;;;;;;;6.63;4.03;;;;;;;;;;470482;28;1155;-71
2023/12/16 01:00:09;;;;;;;8.53;4.30;;;;;;;;;;468528;28;994;-71
2023/12/16 01:00:25;;;;;;;9.38;4.70;;;;;;;;;;470444;28;1042;-72
2023/12/16 01:00:42;;;;;;;7.30;4.35;;;;;;;;;;469226;28;881;-72
2023/12/16 01:00:57;;;;;;;8.48;4.55;;;;;;;;;;471825;28;1167;-71
2023/12/16 01:01:14;;;;;;;10.20;5.03;;;;;;;;;;472008;28;908;-72
2023/12/16 01:01:29;;;;;;;9.80;5.00;;;;;;;;;;471822;28;1171;-72
2023/12/16 01:01:45;;;;;;;8.40;4.80;;;;;;;;;;471039;28;1133;-71
2023/12/16 01:02:01;;;;;;;7.80;4.80;;;;;;;;;;472226;28;1155;-72
2023/12/16 01:02:17;;;;;;;8.57;5.10;;;;;;;;;;472528;28;1097;-72
2023/12/16 01:02:32;;;;;;;9.77;5.10;;;;;;;;;;472038;28;1060;-72
2023/12/16 01:02:47;;;;;;;11.00;5.10;;;;;;;;;;469379;28;1157;-71
2023/12/16 01:03:03;;;;;;;11.53;4.93;;;;;;;;;;470710;28;1267;-72
2023/12/16 01:03:18;;;;;;;10.63;4.70;;;;;;;;;;471233;28;952;-71
2023/12/16 01:03:34;;;;;;;9.82;4.57;;;;;;;;;;471081;28;906;-72
2023/12/16 01:03:49;;;;;;;9.63;4.70;;;;;;;;;;469676;28;1029;-72
2023/12/16 01:04:05;;;;;;;9.95;4.90;;;;;;;;;;468182;28;1033;-72
2023/12/16 01:04:20;;;;;;;10.00;4.83;;;;;;;;;;468551;28;1552;-71
2023/12/16 01:04:36;;;;;;;8.68;4.70;;;;;;;;;;469009;28;1388;-72
2023/12/16 01:04:52;;;;;;;9.47;4.73;;;;;;;;;;469237;28;957;-71
2023/12/16 01:05:07;;;;;;;9.02;4.43;;;;;;;;;;469834;28;1067;-71
2023/12/16 01:05:23;;;;;;;8.43;4.68;;;;;;;;;;469350;28;1057;-71
2023/12/16 01:05:38;;;;;;;9.97;5.20;;;;;;;;;;469653;28;972;-72
2023/12/16 01:05:53;;;;;;;10.70;4.90;;;;;;;;;;469967;28;1208;-71
2023/12/16 01:06:09;;;;;;;11.05;4.97;;;;;;;;;;470260;28;1155;-71
2023/12/16 01:06:24;;;;;;;12.83;5.27;;;;;;;;;;471049;28;850;-71
2023/12/16 01:06:39;;;;;;;11.43;5.30;;;;;;;;;;470718;28;1172;-72
2023/12/16 01:06:55;;;;;;;9.27;5.18;;;;;;;;;;471282;28;857;-72
2023/12/16 01:07:10;;;;;;;9.40;5.00;;;;;;;;;;471591;28;1061;-72
2023/12/16 01:07:25;;;;;;;9.43;4.68;;;;;;;;;;472903;28;1034;-71
2023/12/16 01:07:41;;;;;;;7.80;4.37;;;;;;;;;;474508;28;1210;-72
2023/12/16 01:07:56;;;;;;;7.47;4.50;;;;;;;;;;473387;27;1273;-72
2023/12/16 01:08:11;;;;;;;8.23;4.70;;;;;;;;;;476114;27;1194;-72
2023/12/16 01:08:27;;;;;;;8.23;4.72;;;;;;;;;;473401;28;1207;-72
2023/12/16 01:08:43;;;;;;;9.17;5.00;;;;;;;;;;473172;28;904;-71
2023/12/16 01:08:59;;;;;;;10.18;4.90;;;;;;;;;;473076;28;921;-72
2023/12/16 01:09:14;;;;;;;10.87;5.00;;;;;;;;;;471017;28;1042;-72
2023/12/16 01:09:29;;;;;;;9.40;5.03;;;;;;;;;;470952;28;941;-71
2023/12/16 01:09:44;;;;;;;8.45;4.70;;;;;;;;;;472426;28;1053;-71
2023/12/16 01:10:00;;;;;;;8.30;4.93;;;;;;;;;;471991;28;861;-71
2023/12/16 01:10:15;;;;;;;8.80;5.13;;;;;;;;;;473443;27;1235;-72
2023/12/16 01:10:31;;;;;;;9.20;4.93;;;;;;;;;;476613;27;877;-72
2023/12/16 01:10:46;;;;;;;9.43;4.90;;;;;;;;;;474893;27;2041;-72
2023/12/16 01:11:01;;;;;;;9.63;4.80;;;;;;;;;;475257;27;1541;-71
2023/12/16 01:11:17;;;;;;;11.45;5.00;;;;;;;;;;475588;27;2366;-72
2023/12/16 01:11:32;;;;;;;11.50;5.00;;;;;;;;;;475699;27;961;-72
2023/12/16 01:11:47;;;;;;;9.80;5.07;;;;;;;;;;476456;27;881;-72
2023/12/16 01:12:03;;;;;;;11.00;5.65;;;;;;;;;;473466;28;1138;-72
2023/12/16 01:12:18;;;;;;;11.13;5.75;;;;;;;;;;473683;28;952;-72
2023/12/16 01:12:34;;;;;;;10.83;5.60;;;;;;;;;;470984;28;1309;-71
2023/12/16 01:12:49;;;;;;;10.30;5.67;;;;;;;;;;471286;28;1452;-72
2023/12/16 01:13:04;;;;;;;8.20;5.22;;;;;;;;;;471015;28;1115;-72
2023/12/16 01:13:20;;;;;;;10.97;5.33;;;;;;;;;;473315;28;1782;-72
2023/12/16 01:13:35;;;;;;;13.77;6.30;;;;;;;;;;470351;28;1168;-71
2023/12/16 01:13:51;;;;;;;10.27;6.13;;;;;;;;;;470420;28;1086;-71
2023/12/16 01:14:06;;;;;;;9.83;5.83;;;;;;;;;;468723;28;1002;-71
2023/12/16 01:14:21;;;;;;;10.68;5.78;;;;;;;;;;468761;28;870;-72
2023/12/16 01:14:37;;;;;;;10.73;5.80;;;;;;;;;;468713;28;850;-72
2023/12/16 01:14:52;;;;;;;10.27;5.77;;;;;;;;;;469880;28;1102;-72
2023/12/16 01:15:08;;;;;;;9.95;5.53;;;;;;;;;;472155;28;1269;-72
2023/12/16 01:15:23;;;;;;;9.52;5.50;;;;;;;;;;471252;28;862;-72
2023/12/16 01:15:39;;;;;;;8.23;5.17;;;;;;;;;;472939;28;1122;-72
2023/12/16 01:15:54;;;;;;;7.30;4.63;;;;;;;;;;473076;28;1202;-71
2023/12/16 01:16:09;;;;;;;7.22;4.60;;;;;;;;;;472420;28;1241;-71
2023/12/16 01:16:25;;;;;;;7.23;4.53;;;;;;;;;;471381;28;1174;-72
2023/12/16 01:16:40;;;;;;;7.97;4.50;;;;;;;;;;472360;28;1109;-71
2023/12/16 01:16:55;;;;;;;10.40;4.80;;;;;;;;;;471778;28;1604;-71
2023/12/16 01:17:11;;;;;;;11.13;4.90;;;;;;;;;;470470;28;1584;-72
2023/12/16 01:17:26;;;;;;;11.40;4.80;;;;;;;;;;471637;28;1094;-72
2023/12/16 01:17:41;;;;;;;13.07;5.00;;;;;;;;;;469916;28;1565;-71
2023/12/16 01:17:57;;;;;;;12.17;4.90;;;;;;;;;;470620;28;991;-72
2023/12/16 01:18:12;;;;;;;10.07;4.70;;;;;;;;;;471738;28;1250;-71
2023/12/16 01:18:28;;;;;;;9.73;4.80;;;;;;;;;;473765;28;926;-72
2023/12/16 01:18:43;;;;;;;9.13;4.60;;;;;;;;;;473644;28;1272;-72
2023/12/16 01:18:58;;;;;;;8.98;4.63;;;;;;;;;;473465;28;1010;-72
2023/12/16 01:19:14;;;;;;;9.40;5.00;;;;;;;;;;473762;28;1099;-72
2023/12/16 01:19:29;;;;;;;8.55;4.95;;;;;;;;;;471223;28;1183;-72
2023/12/16 01:19:44;;;;;;;9.77;4.90;;;;;;;;;;472951;28;972;-72
2023/12/16 01:20:00;;;;;;;11.10;5.03;;;;;;;;;;473036;28;1088;-72
2023/12/16 01:20:16;;;;;;;9.73;4.80;;;;;;;;;;471363;28;1151;-72
2023/12/16 01:20:31;;;;;;;9.40;4.90;;;;;;;;;;470919;28;1058;-72
2023/12/16 01:20:46;;;;;;;10.03;5.03;;;;;;;;;;470799;28;854;-72
2023/12/16 01:21:06;;;;;;;9.73;5.03;;;;;;;;;;471223;28;1202;-72
2023/12/16 01:21:21;;;;;;;9.52;4.90;;;;;;;;;;472078;28;1340;-72
2023/12/16 01:21:41;;;;;;;9.75;4.90;;;;;;;;;;471405;28;1377;-72
2023/12/16 01:21:56;;;;;;;8.32;4.60;;;;;;;;;;469375;28;1211;-72
2023/12/16 01:22:11;;;;;;;8.87;4.47;;;;;;;;;;469013;28;1013;-71
2023/12/16 01:22:27;;;;;;;9.23;4.40;;;;;;;;;;469219;28;1108;-72
2023/12/16 01:22:42;;;;;;;9.73;4.43;;;;;;;;;;467836;28;1090;-72
2023/12/16 01:22:57;;;;;;;10.57;4.57;;;;;;;;;;468928;28;1145;-72
2023/12/16 01:23:12;;;;;;;10.63;4.80;;;;;;;;;;467822;28;1247;-72
2023/12/16 01:23:28;;;;;;;10.97;5.00;;;;;;;;;;468515;28;1073;-72
2023/12/16 01:23:44;;;;;;;10.57;4.90;;;;;;;;;;469437;28;1157;-72
2023/12/16 01:23:59;;;;;;;9.20;4.68;;;;;;;;;;468624;28;1062;-72
2023/12/16 01:24:15;;;;;;;8.90;4.70;;;;;;;;;;468775;28;846;-72
2023/12/16 01:24:32;;;;;;;9.73;4.90;;;;;;;;;;468915;28;988;-71
2023/12/16 01:24:47;;;;;;;10.05;4.88;;;;;;;;;;470418;28;1040;-72
2023/12/16 01:25:03;;;;;;;9.67;4.47;;;;;;;;;;469696;28;1364;-72
2023/12/16 01:25:18;;;;;;;9.00;4.32;;;;;;;;;;470589;28;907;-72
2023/12/16 01:25:34;;;;;;;9.47;4.57;;;;;;;;;;471265;28;966;-72
2023/12/16 01:25:49;;;;;;;10.45;4.80;;;;;;;;;;472681;28;1197;-72
2023/12/16 01:26:04;;;;;;;10.70;4.80;;;;;;;;;;471498;28;1183;-72
2023/12/16 01:26:20;;;;;;;11.07;4.80;;;;;;;;;;470350;28;1254;-72
2023/12/16 01:26:36;;;;;;;10.63;4.90;;;;;;;;;;470371;28;976;-71
2023/12/16 01:26:51;;;;;;;9.05;4.80;;;;;;;;;;468080;28;1381;-72
2023/12/16 01:27:06;;;;;;;9.80;4.70;;;;;;;;;;468223;28;1124;-71
2023/12/16 01:27:21;;;;;;;10.50;4.77;;;;;;;;;;468479;28;1003;-71
2023/12/16 01:27:37;;;;;;;10.13;4.90;;;;;;;;;;469443;28;1195;-72
2023/12/16 01:27:52;;;;;;;9.40;4.63;;;;;;;;;;471185;28;906;-72
2023/12/16 01:28:07;;;;;;;8.37;4.57;;;;;;;;;;468077;28;1159;-72
2023/12/16 01:28:23;;;;;;;11.02;4.90;;;;;;;;;;469771;28;929;-72
2023/12/16 01:28:38;;;;;;;11.63;5.00;;;;;;;;;;469713;28;934;-71
2023/12/16 01:28:54;;;;;;;9.57;5.00;;;;;;;;;;469516;28;921;-72
2023/12/16 01:29:09;;;;;;;10.53;4.90;;;;;;;;;;471318;28;912;-72
2023/12/16 01:29:24;;;;;;;9.97;4.70;;;;;;;;;;473276;28;972;-72
2023/12/16 01:29:40;;;;;;;10.30;4.60;;;;;;;;;;473478;28;1124;-71
2023/12/16 01:29:55;;;;;;;10.73;4.67;;;;;;;;;;471855;28;1259;-72
2023/12/16 01:30:10;;;;;;;10.50;5.07;;;;;;;;;;474552;28;1075;-72
2023/12/16 01:30:26;;;;;;;11.70;5.28;;;;;;;;;;473768;28;1113;-72
2023/12/16 01:30:41;;;;;;;11.40;4.83;;;;;;;;;;473554;28;1104;-72
2023/12/16 01:30:57;;;;;;;9.73;4.50;;;;;;;;;;471734;28;1965;-72
2023/12/16 01:31:12;;;;;;;9.40;4.43;;;;;;;;;;471857;28;1141;-72
2023/12/16 01:31:27;;;;;;;9.73;4.60;;;;;;;;;;471675;28;923;-72
2023/12/16 01:31:43;;;;;;;8.40;4.50;;;;;;;;;;471342;28;1325;-72
2023/12/16 01:31:58;;;;;;;8.30;4.50;;;;;;;;;;471270;28;1050;-72
2023/12/16 01:32:13;;;;;;;9.23;4.53;;;;;;;;;;471510;28;1083;-72
2023/12/16 01:32:28;;;;;;;9.52;4.50;;;;;;;;;;471019;28;952;-71
2023/12/16 01:32:44;;;;;;;10.30;4.60;;;;;;;;;;473691;28;943;-72
2023/12/16 01:33:00;;;;;;;9.65;4.60;;;;;;;;;;473220;28;1391;-72
2023/12/16 01:33:15;;;;;;;8.97;4.63;;;;;;;;;;471769;28;1081;-72
2023/12/16 01:33:30;;;;;;;10.40;4.70;;;;;;;;;;472005;28;1058;-72
2023/12/16 01:33:46;;;;;;;10.35;4.75;;;;;;;;;;469353;28;1025;-72
2023/12/16 01:34:01;;;;;;;9.83;4.83;;;;;;;;;;469994;28;898;-72
2023/12/16 01:34:16;;;;;;;9.90;4.93;;;;;;;;;;472013;28;891;-72
2023/12/16 01:34:32;;;;;;;10.52;5.00;;;;;;;;;;469305;28;1085;-71
2023/12/16 01:34:47;;;;;;;10.93;5.10;;;;;;;;;;469608;28;1330;-72
2023/12/16 01:35:02;;;;;;;11.47;5.10;;;;;;;;;;471808;28;972;-72
2023/12/16 01:35:18;;;;;;;11.50;4.97;;;;;;;;;;473470;28;976;-72
2023/12/16 01:35:33;;;;;;;9.53;4.70;;;;;;;;;;470925;28;1167;-72